Time;durP1;ratioP1;P1;durP2;ratioP2;P2;SDS_P1;SDS_P2;PMS_P1;PMS_P2;Temp;Humidity;BMP_temperature;BMP_pressure;BME280_temperature;BME280_humidity;BME280_pressure;Samples;Min_cycle;Max_cycle;Signal;HPM_P1;HPM_P2
2022/09/17 00:00:39;;;;;;;11.15;7.20;;;;;;;9.97;84.27;98244.41;4906578;29;20493;-80
2022/09/17 00:03:07;;;;;;;10.55;6.97;;;;;;;10.08;84.46;98252.75;4889851;29;21080;-83
2022/09/17 00:05:36;;;;;;;10.02;6.55;;;;;;;9.97;84.39;98238.38;4904896;29;20041;-83
2022/09/17 00:08:04;;;;;;;10.15;6.97;;;;;;;10.10;84.48;98269.16;4908687;29;20068;-82
2022/09/17 00:10:32;;;;;;;11.80;7.18;;;;;;;9.94;84.48;98245.38;4888714;29;20062;-82
2022/09/17 00:12:58;;;;;;;11.30;7.00;;;;;;;9.89;84.11;98238.63;4902667;29;20131;-82
2022/09/17 00:15:24;;;;;;;13.15;6.43;;;;;;;10.07;84.45;98282.22;4906506;29;20505;-81
2022/09/17 00:17:57;;;;;;;11.82;6.93;;;;;;;9.84;84.65;98264.72;4915286;29;20052;-81
2022/09/17 00:20:26;;;;;;;11.38;6.40;;;;;;;9.74;83.90;98255.53;4913201;29;20103;-82
2022/09/17 00:22:53;;;;;;;14.65;6.57;;;;;;;9.57;83.99;98235.25;4906194;29;20041;-82
2022/09/17 00:25:19;;;;;;;13.82;6.70;;;;;;;9.77;84.22;98290.03;4908187;29;20048;-84
2022/09/17 00:27:46;;;;;;;12.07;6.60;;;;;;;9.62;84.01;98267.13;4890406;29;20080;-82
2022/09/17 00:30:12;;;;;;;9.80;6.53;;;;;;;9.67;84.13;98283.44;4911109;29;20045;-84
2022/09/17 00:32:38;;;;;;;10.65;6.45;;;;;;;9.44;84.36;98258.13;4910907;29;20052;-81
2022/09/17 00:35:05;;;;;;;12.35;6.68;;;;;;;9.31;84.12;98253.28;4890279;29;20135;-83
2022/09/17 00:37:31;;;;;;;9.50;6.57;;;;;;;9.19;84.18;98251.91;4908291;29;20044;-84
2022/09/17 00:39:57;;;;;;;11.43;6.78;;;;;;;9.15;83.75;98255.47;4902686;29;20091;-83
2022/09/17 00:42:23;;;;;;;10.32;6.70;;;;;;;8.93;84.04;98221.50;4905018;29;20100;-82
2022/09/17 00:44:49;;;;;;;10.73;7.30;;;;;;;9.28;84.07;98287.13;4914183;29;20055;-81
2022/09/17 00:47:57;;;;;;;10.27;6.80;;;;;;;9.37;84.55;98303.34;4914142;29;20064;-82
2022/09/17 00:50:40;;;;;;;11.77;7.03;;;;;;;9.11;84.36;98268.56;4859371;29;20053;-83
2022/09/17 00:53:11;;;;;;;9.20;5.90;;;;;;;9.29;84.39;98308.72;4855109;29;20517;-81
2022/09/17 00:56:13;;;;;;;11.10;6.85;;;;;;;9.26;84.26;98309.66;4876351;29;20368;-82
2022/09/17 00:58:39;;;;;;;9.18;6.35;;;;;;;8.90;83.99;98255.28;4906559;29;20039;-80
2022/09/17 01:01:06;;;;;;;11.27;6.90;;;;;;;9.06;84.44;98293.78;4886130;29;20848;-81
2022/09/17 01:03:32;;;;;;;11.15;6.30;;;;;;;9.15;83.95;98309.13;4903038;29;20041;-84
2022/09/17 01:06:04;;;;;;;11.48;7.05;;;;;;;9.12;84.25;98309.19;4903914;29;20113;-82
2022/09/17 01:08:42;;;;;;;9.02;6.68;;;;;;;9.09;84.32;98311.88;4883627;29;20039;-83
2022/09/17 01:11:43;;;;;;;12.13;6.68;;;;;;;9.04;84.50;98309.41;4921153;29;20067;-81
2022/09/17 01:14:24;;;;;;;12.25;7.18;;;;;;;8.70;84.07;98271.38;4906497;29;20495;-84
2022/09/17 01:17:32;;;;;;;10.18;6.72;;;;;;;8.97;84.13;98318.25;4921969;29;20044;-82
2022/09/17 01:20:33;;;;;;;11.80;6.78;;;;;;;8.93;84.50;98320.06;4858782;29;20448;-82
2022/09/17 01:23:11;;;;;;;13.90;7.38;;;;;;;8.89;84.17;98315.84;4885565;29;20415;-82
2022/09/17 01:25:58;;;;;;;13.38;7.00;;;;;;;8.74;84.35;98297.16;4906986;29;20111;-80
2022/09/17 01:28:45;;;;;;;12.75;6.80;;;;;;;8.83;84.23;98316.00;4920975;29;20063;-81
2022/09/17 01:31:14;;;;;;;13.30;6.82;;;;;;;8.76;84.21;98319.63;4922917;29;20420;-83
2022/09/17 01:33:47;;;;;;;11.25;6.63;;;;;;;8.50;84.21;98288.28;4891017;29;20044;-83
2022/09/17 01:36:44;;;;;;;13.43;7.05;;;;;;;8.73;84.24;98326.59;4894076;29;20043;-85
2022/09/17 01:39:44;;;;;;;13.05;7.13;;;;;;;8.71;84.17;98328.41;4905748;29;20052;-82
2022/09/17 01:42:35;;;;;;;15.35;7.20;;;;;;;8.68;84.35;98332.78;4884752;29;20046;-81
2022/09/17 01:45:11;;;;;;;12.45;6.93;;;;;;;8.66;84.19;98339.75;4895981;29;20059;-80
2022/09/17 01:47:46;;;;;;;11.88;7.07;;;;;;;8.54;84.40;98320.16;4901692;29;20043;-84
2022/09/17 01:50:16;;;;;;;12.82;7.05;;;;;;;8.35;84.06;98304.19;4908121;29;20048;-81
2022/09/17 01:52:47;;;;;;;16.40;6.63;;;;;;;8.47;84.77;98311.63;4909505;29;20035;-80
2022/09/17 01:55:15;;;;;;;10.50;6.88;;;;;;;8.24;84.46;98287.13;4925581;29;20050;-82
2022/09/17 01:57:53;;;;;;;11.55;7.47;;;;;;;8.27;84.54;98302.59;4909758;29;20040;-81
2022/09/17 02:00:19;;;;;;;11.55;7.13;;;;;;;8.21;84.38;98294.13;4895896;29;20043;-82
2022/09/17 02:02:45;;;;;;;15.38;7.32;;;;;;;8.50;84.49;98341.84;4909146;29;20467;-82
2022/09/17 02:05:18;;;;;;;10.80;6.47;;;;;;;8.44;84.59;98345.41;4926044;29;20083;-84
2022/09/17 02:07:53;;;;;;;9.98;6.45;;;;;;;8.27;84.42;98319.91;4925532;29;20876;-81
2022/09/17 02:10:25;;;;;;;8.95;6.07;;;;;;;8.21;84.47;98323.47;4898197;29;20110;-84
2022/09/17 02:13:07;;;;;;;10.55;6.63;;;;;;;8.12;84.30;98313.34;4909796;29;20432;-81
2022/09/17 02:15:35;;;;;;;;;;;;;;;8.46;84.43;98366.13;4909613;29;20407;-85
2022/09/17 02:18:10;;;;;;;11.50;6.18;;;;;;;8.25;84.54;98337.22;4892869;29;20986;-81
2022/09/17 02:20:47;;;;;;;10.32;5.93;;;;;;;8.39;84.15;98371.44;4896469;29;20582;-82
2022/09/17 02:23:24;;;;;;;11.23;6.43;;;;;;;8.12;84.51;98329.72;4911202;29;20040;-81
2022/09/17 02:26:05;;;;;;;10.18;6.13;;;;;;;8.02;84.59;98320.47;4894831;29;20073;-81
2022/09/17 02:28:47;;;;;;;9.05;5.90;;;;;;;8.04;84.50;98323.00;4894386;29;20040;-81
2022/09/17 02:31:13;;;;;;;10.25;5.88;;;;;;;8.25;84.66;98357.97;4925145;29;20055;-84
2022/09/17 02:33:43;;;;;;;11.23;5.88;;;;;;;7.96;84.41;98318.00;4912769;29;20048;-83
2022/09/17 02:36:09;;;;;;;10.63;6.57;;;;;;;7.93;84.67;98315.47;4925160;29;20058;-83
2022/09/17 02:38:37;;;;;;;12.20;5.90;;;;;;;8.25;84.62;98368.31;4906964;29;20412;-81
2022/09/17 02:41:16;;;;;;;10.73;6.30;;;;;;;8.28;84.57;98370.81;4925835;29;20044;-79
2022/09/17 02:43:59;;;;;;;10.93;6.70;;;;;;;8.25;84.52;98368.31;4907126;29;20554;-81
2022/09/17 02:46:50;;;;;;;13.02;6.55;;;;;;;8.22;84.53;98370.97;4923808;29;20091;-82
2022/09/17 02:49:42;;;;;;;9.85;6.30;;;;;;;8.20;84.51;98372.75;4891464;29;20146;-82
2022/09/17 02:52:44;;;;;;;10.48;6.25;;;;;;;8.19;84.46;98371.03;4912469;29;20157;-82
2022/09/17 02:55:17;;;;;;;13.90;7.25;;;;;;;7.90;84.48;98334.53;4909129;29;20503;-83
2022/09/17 02:57:49;;;;;;;12.05;6.88;;;;;;;8.14;84.53;98378.94;4897537;29;20051;-83
2022/09/17 03:00:18;;;;;;;11.90;7.35;;;;;;;7.91;84.53;98344.00;4925844;29;20076;-83
2022/09/17 03:03:15;;;;;;;12.55;7.30;;;;;;;8.11;84.44;98374.66;4908127;29;20084;-85
2022/09/17 03:05:43;;;;;;;12.38;7.72;;;;;;;7.92;84.35;98347.44;4897519;29;20047;-83
2022/09/17 03:08:13;;;;;;;14.18;7.82;;;;;;;7.82;84.60;98336.41;4903811;29;20063;-83
2022/09/17 03:10:40;;;;;;;13.25;7.35;;;;;;;7.78;84.58;98329.59;4934314;29;20058;-80
2022/09/17 03:13:06;;;;;;;14.15;7.85;;;;;;;7.97;84.97;98350.78;4903884;29;20039;-85
2022/09/17 03:15:32;;;;;;;16.13;7.72;;;;;;;8.27;84.52;98387.28;4936762;29;20055;-83
2022/09/17 03:17:58;;;;;;;18.90;8.10;;;;;;;8.34;84.51;98391.44;4903811;29;20415;-85
2022/09/17 03:20:25;;;;;;;11.95;7.40;;;;;;;8.36;84.92;98388.81;4918626;29;20046;-83
2022/09/17 03:22:54;;;;;;;13.57;7.53;;;;;;;8.23;84.46;98357.97;4909035;29;20046;-87
2022/09/17 03:25:20;;;;;;;11.32;7.13;;;;;;;8.41;84.47;98382.63;4923928;29;20039;-82
2022/09/17 03:27:47;;;;;;;9.25;7.00;;;;;;;8.44;84.41;98390.34;4938717;29;20095;-81
2022/09/17 03:30:13;;;;;;;9.00;6.72;;;;;;;8.56;84.52;98410.00;4920640;29;20044;-83
2022/09/17 03:32:39;;;;;;;10.40;7.07;;;;;;;8.17;84.49;98358.09;4889325;29;20118;-83
2022/09/17 03:35:06;;;;;;;10.13;7.30;;;;;;;8.37;84.40;98386.19;4944070;29;20067;-82
2022/09/17 03:37:35;;;;;;;10.25;6.50;;;;;;;8.18;84.39;98349.44;4929479;29;20075;-83
2022/09/17 03:40:01;;;;;;;12.05;6.82;;;;;;;8.30;84.49;98369.06;4929579;29;20043;-82
2022/09/17 03:42:29;;;;;;;10.88;6.80;;;;;;;8.18;84.16;98353.78;4956061;29;20040;-81
2022/09/17 03:44:55;;;;;;;9.85;6.32;;;;;;;8.37;84.24;98383.59;4908938;29;20035;-84
2022/09/17 03:47:21;;;;;;;12.13;6.45;;;;;;;8.48;84.20;98398.06;4899177;29;20044;-85
2022/09/17 03:49:48;;;;;;;9.57;5.97;;;;;;;8.39;84.45;98378.34;4902195;29;20084;-83
2022/09/17 03:52:14;;;;;;;12.90;7.28;;;;;;;8.40;84.23;98367.97;4935299;29;20399;-85
2022/09/17 03:54:40;;;;;;;11.88;6.55;;;;;;;8.63;84.45;98374.41;4949207;29;20039;-85
2022/09/17 03:57:06;;;;;;;13.25;6.75;;;;;;;8.76;84.20;98381.88;4913223;29;20054;-83
2022/09/17 03:59:32;;;;;;;10.43;6.47;;;;;;;9.13;84.48;98420.75;4933053;29;20058;-85
2022/09/17 04:01:58;;;;;;;10.05;5.53;;;;;;;8.87;83.99;98365.16;4917497;29;20126;-85
2022/09/17 04:04:26;;;;;;;7.88;6.00;;;;;;;9.22;84.20;98408.44;4900203;29;20067;-82
2022/09/17 04:06:54;;;;;;;10.70;6.18;;;;;;;9.42;84.25;98407.91;4916455;29;20091;-85
2022/09/17 04:09:20;;;;;;;7.63;5.78;;;;;;;9.49;84.16;98391.28;4886152;29;20043;-83
2022/09/17 04:11:46;;;;;;;8.23;6.10;;;;;;;9.74;83.63;98429.56;4907453;29;20139;-82
2022/09/17 04:14:12;;;;;;;8.32;5.38;;;;;;;9.56;83.57;98395.41;4905456;29;20499;-81
2022/09/17 04:16:38;;;;;;;7.82;4.93;;;;;;;9.83;83.80;98433.66;4926793;29;20042;-82
2022/09/17 04:19:04;;;;;;;7.22;4.95;;;;;;;9.83;83.39;98442.28;4928185;29;20696;-82
2022/09/17 04:21:30;;;;;;;7.95;5.03;;;;;;;9.84;83.23;98438.78;4925883;29;20139;-83
2022/09/17 04:23:57;;;;;;;8.38;5.30;;;;;;;9.62;83.50;98408.22;4925661;29;20052;-83
2022/09/17 04:26:22;;;;;;;9.43;5.38;;;;;;;9.79;83.20;98453.69;4908026;29;20071;-82
2022/09/17 04:28:48;;;;;;;8.40;5.72;;;;;;;9.65;83.17;98422.88;4926284;29;20058;-83
2022/09/17 04:31:14;;;;;;;7.65;5.40;;;;;;;9.42;83.06;98398.38;4906663;29;20555;-83
2022/09/17 04:33:40;;;;;;;10.55;5.65;;;;;;;9.54;82.73;98409.31;4908936;29;20043;-83
2022/09/17 04:36:06;;;;;;;7.35;5.35;;;;;;;9.75;82.60;98444.25;4898698;29;20131;-81
2022/09/17 04:38:33;;;;;;;10.18;5.57;;;;;;;9.69;83.08;98421.03;4930915;29;20063;-80
2022/09/17 04:40:59;;;;;;;7.22;5.40;;;;;;;9.95;82.89;98447.16;4913978;29;20499;-81
2022/09/17 04:43:26;;;;;;;11.32;6.03;;;;;;;10.05;82.81;98454.69;4914861;29;20048;-83
2022/09/17 04:45:52;;;;;;;8.02;5.70;;;;;;;10.00;82.71;98402.84;4909459;29;20055;-83
2022/09/17 04:48:19;;;;;;;6.90;5.00;;;;;;;10.69;83.42;98451.13;4926020;29;20650;-83
2022/09/17 04:50:45;;;;;;;6.50;4.75;;;;;;;11.88;83.42;98413.31;4890503;29;20047;-81
2022/09/17 04:53:11;;;;;;;4.82;3.97;;;;;;;13.59;82.83;98405.78;4909757;29;20052;-81
2022/09/17 04:55:42;;;;;;;5.68;4.05;;;;;;;15.32;82.09;98423.97;4928346;29;20040;-79
2022/09/17 04:58:07;;;;;;;5.28;3.85;;;;;;;16.17;80.02;98389.03;4922516;29;20084;-85
2022/09/17 05:00:34;;;;;;;7.05;3.83;;;;;;;17.25;78.84;98395.28;4910560;29;20375;-83
2022/09/17 05:03:00;;;;;;;5.28;3.15;;;;;;;17.83;74.83;98379.56;4898140;29;20138;-84
2022/09/17 05:05:32;;;;;;;4.25;3.42;;;;;;;18.69;73.85;98406.72;4911159;29;20036;-81
2022/09/17 05:08:02;;;;;;;5.10;3.90;;;;;;;19.13;72.61;98396.88;4910178;29;20055;-84
2022/09/17 05:10:28;;;;;;;4.45;3.60;;;;;;;19.29;70.98;98375.63;4912879;29;20040;-84
2022/09/17 05:12:55;;;;;;;6.00;3.75;;;;;;;19.33;68.74;98388.47;4910435;29;20119;-82
2022/09/17 05:15:23;;;;;;;5.10;3.65;;;;;;;19.86;67.44;98424.50;4925690;29;20040;-86
2022/09/17 05:17:49;;;;;;;3.88;3.47;;;;;;;20.42;66.95;98426.75;4928654;29;20114;-83
2022/09/17 05:20:16;;;;;;;4.03;3.28;;;;;;;20.67;64.54;98395.91;4900341;29;20046;-82
2022/09/17 05:22:47;;;;;;;5.38;3.55;;;;;;;20.91;62.32;98440.03;4924845;29;20115;-81
2022/09/17 05:25:15;;;;;;;3.97;3.38;;;;;;;21.06;60.26;98440.72;4902929;29;20036;-86
2022/09/17 05:27:45;;;;;;;4.97;3.50;;;;;;;21.71;60.09;98424.47;4934877;29;20047;-86
2022/09/17 05:30:12;;;;;;;4.65;3.15;;;;;;;22.73;56.78;98405.03;4881726;29;20114;-84
2022/09/17 05:32:39;;;;;;;4.70;3.63;;;;;;;23.73;55.36;98438.34;4933541;29;20438;-84
2022/09/17 05:35:09;;;;;;;5.72;3.58;;;;;;;24.33;53.81;98449.16;4919482;29;20048;-83
2022/09/17 05:37:36;;;;;;;7.72;3.40;;;;;;;24.81;50.97;98393.59;4902231;29;20040;-86
2022/09/17 05:40:05;;;;;;;5.45;3.25;;;;;;;25.47;49.58;98408.00;4892639;29;20035;-84
2022/09/17 05:42:37;;;;;;;5.78;3.17;;;;;;;25.26;46.94;98376.19;4922462;29;20539;-83
2022/09/17 05:45:07;;;;;;;5.55;3.55;;;;;;;26.04;46.48;98379.66;4914374;29;20123;-86
2022/09/17 05:47:34;;;;;;;3.90;3.60;;;;;;;26.33;43.66;98421.34;4922320;29;20035;-82
2022/09/17 05:50:00;;;;;;;7.20;3.58;;;;;;;26.35;43.72;98366.03;4922188;29;20046;-84
2022/09/17 05:52:30;;;;;;;3.50;3.20;;;;;;;27.65;42.20;98444.84;4942052;29;20066;-81
2022/09/17 05:55:00;;;;;;;4.03;2.80;;;;;;;28.23;41.04;98423.78;4925136;29;20043;-83
2022/09/17 05:57:29;;;;;;;5.97;3.60;;;;;;;28.94;39.37;98447.59;4936258;29;20145;-85
2022/09/17 05:59:56;;;;;;;5.47;3.57;;;;;;;29.51;38.90;98408.47;4899813;29;20054;-85
2022/09/17 06:02:30;;;;;;;3.72;3.25;;;;;;;29.84;37.51;98410.25;4922342;29;20279;-84
2022/09/17 06:05:17;;;;;;;4.00;2.78;;;;;;;30.34;35.96;98398.34;4940017;29;20031;-85
2022/09/17 06:08:09;;;;;;;8.02;3.72;;;;;;;30.93;34.75;98386.28;5200750;23;20071;-87
2022/09/17 06:31:17;;;;;;;7.45;2.72;;;;;;;35.86;27.42;98430.59;4870813;29;19932;-86
2022/09/17 06:33:53;;;;;;;;;;;;;;;;;;;;;
2022/09/17 06:36:41;;;;;;;6.65;2.60;;;;;;;35.57;25.06;98446.22;4892793;29;20079;-84
2022/09/17 06:39:10;;;;;;;4.10;2.30;;;;;;;36.23;24.96;98452.56;4886179;29;20041;-86
2022/09/17 06:41:41;;;;;;;9.02;2.53;;;;;;;36.70;24.17;98451.56;4899040;29;20040;-83
2022/09/17 06:44:08;;;;;;;5.22;2.70;;;;;;;36.81;23.53;98441.91;4906213;29;20045;-87
2022/09/17 06:46:34;;;;;;;6.63;2.70;;;;;;;36.83;22.29;98410.84;4886847;29;20030;-87
2022/09/17 06:49:00;;;;;;;7.38;2.65;;;;;;;36.99;22.21;98398.69;4920898;29;20124;-83
2022/09/17 06:52:00;;;;;;;4.25;2.88;;;;;;;37.06;21.81;98393.19;4896760;29;20040;-89
2022/09/17 06:54:41;;;;;;;4.45;2.25;;;;;;;37.63;21.32;98404.00;4909300;29;20044;-87
2022/09/17 06:57:10;;;;;;;5.53;2.70;;;;;;;37.92;21.37;98455.06;4893261;29;20052;-85
2022/09/17 06:59:41;;;;;;;4.60;2.38;;;;;;;37.90;20.74;98408.31;4911183;29;20099;-87
2022/09/17 07:05:02;;;;;;;5.00;2.28;;;;;;;37.86;20.60;98421.50;4867719;29;20482;-88
2022/09/17 07:07:42;;;;;;;5.45;2.35;;;;;;;38.17;19.89;98433.31;4881736;29;20041;-87
2022/09/17 07:10:12;;;;;;;7.57;2.53;;;;;;;38.35;19.73;98423.47;4882616;29;20063;-88
2022/09/17 07:12:44;;;;;;;6.50;2.35;;;;;;;38.25;20.04;98465.56;4873185;29;20041;-85
2022/09/17 07:15:11;;;;;;;8.88;2.50;;;;;;;38.42;19.70;98433.22;4851111;29;20502;-89
2022/09/17 07:17:44;;;;;;;5.05;2.40;;;;;;;39.00;18.58;98428.25;4865988;29;20052;-85
2022/09/17 07:20:19;;;;;;;2.58;2.30;;;;;;;38.90;17.97;98447.03;4853824;29;20146;-87
2022/09/17 07:23:09;;;;;;;6.75;2.22;;;;;;;38.85;18.53;98465.91;4868032;29;20041;-91
2022/09/17 07:30:40;;;;;;;6.43;2.40;;;;;;;39.84;18.37;98466.47;4879489;29;20432;-88
2022/09/17 07:33:37;;;;;;;5.57;1.95;;;;;;;40.77;17.45;98471.16;4878567;29;20061;-89
2022/09/17 07:36:30;;;;;;;7.80;2.10;;;;;;;41.59;16.89;98441.78;4844190;29;20086;-90
2022/09/17 07:39:12;;;;;;;7.68;2.40;;;;;;;41.69;16.71;98436.44;4867315;29;20046;-90
2022/09/17 07:42:04;;;;;;;5.35;2.15;;;;;;;41.34;15.59;98406.69;4862236;29;20086;-89
2022/09/17 07:44:34;;;;;;;4.18;2.17;;;;;;;40.85;16.39;98438.03;4868103;29;20048;-89
2022/09/17 07:50:02;;;;;;;6.00;1.98;;;;;;;41.49;15.97;98430.66;4843361;29;20615;-91
2022/09/17 07:52:44;;;;;;;;;;;;;;;;;;;;;
2022/09/17 07:58:44;;;;;;;9.57;2.30;;;;;;;40.20;15.72;98393.75;4876986;29;20053;-87
2022/09/17 08:01:19;;;;;;;7.57;2.17;;;;;;;41.07;14.78;98386.34;4859211;29;20097;-88
2022/09/17 08:03:55;;;;;;;6.80;1.90;;;;;;;41.24;14.06;98393.72;4887521;29;20041;-88
2022/09/17 08:07:00;;;;;;;2.97;1.80;;;;;;;41.35;14.40;98455.56;4864747;29;20447;-89
2022/09/17 08:10:11;;;;;;;;;;;;;;;;;;;;;
2022/09/17 08:12:43;;;;;;;7.47;2.08;;;;;;;41.63;14.33;98407.44;4874737;29;20053;-88
2022/09/17 08:15:42;;;;;;;4.50;1.50;;;;;;;40.57;13.92;98404.28;4863772;29;20033;-84
2022/09/17 08:18:26;;;;;;;7.65;1.67;;;;;;;39.62;14.30;98391.66;4887126;29;20125;-87
2022/09/17 08:21:46;;;;;;;3.05;1.60;;;;;;;39.22;14.16;98411.38;4890109;29;20049;-85
2022/09/17 08:24:27;;;;;;;6.68;1.92;;;;;;;38.37;14.56;98419.50;4867960;29;20046;-86
2022/09/17 08:27:37;;;;;;;2.88;1.33;;;;;;;37.13;15.26;98398.56;4791611;29;20137;-87
2022/09/17 08:30:34;;;;;;;7.07;1.95;;;;;;;36.61;15.58;98394.94;4868313;29;20053;-85
2022/09/17 08:33:41;;;;;;;4.13;1.40;;;;;;;37.59;15.54;98427.19;4864972;29;20045;-89
2022/09/17 08:41:52;;;;;;;;;;;;;;;;;;;;;
2022/09/17 08:45:20;;;;;;;;;;;;;;;;;;;;;
2022/09/17 08:48:34;;;;;;;5.93;1.52;;;;;;;34.76;16.15;98408.25;4810024;29;20533;-87
2022/09/17 08:51:16;;;;;;;4.18;1.67;;;;;;;35.49;15.57;98446.41;4838544;29;20588;-85
2022/09/17 08:54:16;;;;;;;3.30;1.50;;;;;;;35.19;15.52;98409.81;4809804;29;20070;-85
2022/09/17 08:57:10;;;;;;;3.67;1.52;;;;;;;36.38;15.61;98470.41;4820212;29;20061;-89
2022/09/17 09:01:09;;;;;;;4.77;1.50;;;;;;;35.42;15.60;98420.19;4814050;29;20496;-85
2022/09/17 09:03:59;;;;;;;3.95;1.60;;;;;;;32.06;17.54;98479.72;4830707;29;20074;-89
2022/09/17 09:06:58;;;;;;;5.45;1.50;;;;;;;31.07;18.17;98456.34;4848424;29;20046;-91
2022/09/17 09:09:59;;;;;;;6.57;1.70;;;;;;;32.06;18.29;98479.72;4845337;29;20061;-89
2022/09/17 09:12:43;;;;;;;5.47;1.42;;;;;;;32.44;17.95;98485.00;4877038;29;20049;-86
2022/09/17 09:16:13;;;;;;;;;;;;;;;;;;;;;
2022/09/17 09:18:41;;;;;;;2.60;1.40;;;;;;;33.93;17.16;98468.50;4884568;29;20064;-85
2022/09/17 09:21:38;;;;;;;4.13;1.48;;;;;;;33.59;16.47;98495.19;4881986;29;20060;-86
2022/09/17 09:24:25;;;;;;;4.00;1.30;;;;;;;33.06;17.06;98498.19;4868944;29;20067;-85
2022/09/17 09:27:32;;;;;;;8.18;2.13;;;;;;;32.21;17.51;98454.66;4872607;29;20041;-87
2022/09/17 09:30:39;;;;;;;4.03;1.38;;;;;;;32.34;18.03;98481.75;4881612;29;20110;-87
2022/09/17 09:34:13;;;;;;;3.92;1.35;;;;;;;32.78;17.43;98490.81;4879990;29;20043;-85
2022/09/17 09:36:39;;;;;;;4.72;1.80;;;;;;;32.79;17.19;98421.63;4885018;29;20070;-84
2022/09/17 09:39:26;;;;;;;5.85;1.30;;;;;;;33.24;16.71;98413.38;4879978;29;20056;-88
2022/09/17 09:42:04;;;;;;;3.20;1.47;;;;;;;33.21;16.19;98484.69;4873684;29;20074;-85
2022/09/17 09:44:33;;;;;;;6.20;1.50;;;;;;;30.83;17.20;98452.78;4902540;29;20316;-86
2022/09/17 09:47:33;;;;;;;5.20;1.27;;;;;;;30.79;18.25;98515.88;4870992;29;20048;-86
2022/09/17 09:54:12;;;;;;;3.38;1.10;;;;;;;29.26;18.87;98507.56;4876313;29;20042;-87
2022/09/17 09:56:53;;;;;;;4.35;1.10;;;;;;;27.87;20.05;98493.41;4877684;29;20116;-87
2022/09/17 09:59:23;;;;;;;5.18;1.23;;;;;;;28.16;19.81;98486.09;4884972;29;20103;-87
2022/09/17 10:01:53;;;;;;;5.53;1.10;;;;;;;27.15;19.82;98426.72;4891696;29;20060;-86
2022/09/17 10:05:01;;;;;;;5.85;1.23;;;;;;;25.42;20.69;98423.53;4875335;29;20060;-90
2022/09/17 10:08:26;;;;;;;4.88;1.10;;;;;;;26.23;21.40;98464.88;4880588;29;20509;-89
2022/09/17 10:15:28;;;;;;;2.78;1.20;;;;;;;25.97;20.90;98518.78;4877478;29;20051;-83
2022/09/17 10:18:21;;;;;;;5.70;1.10;;;;;;;24.48;21.89;98483.31;4884121;29;20073;-83
2022/09/17 10:21:03;;;;;;;4.53;1.20;;;;;;;23.85;23.07;98486.91;4882805;29;20044;-87
2022/09/17 10:23:47;;;;;;;4.75;1.40;;;;;;;23.04;23.12;98466.16;4899426;29;20048;-89
2022/09/17 10:26:31;;;;;;;5.60;1.30;;;;;;;22.84;23.78;98534.91;4878855;29;20293;-85
2022/09/17 10:29:04;;;;;;;4.85;1.30;;;;;;;22.01;24.85;98500.69;4863680;29;20462;-82
2022/09/17 10:31:56;;;;;;;3.17;0.93;;;;;;;21.90;25.54;98565.03;4878841;29;20088;-84
2022/09/17 10:34:27;;;;;;;2.90;1.00;;;;;;;21.54;25.42;98545.63;4878913;29;20415;-86
2022/09/17 10:36:55;;;;;;;3.95;1.42;;;;;;;21.32;25.97;98531.34;4864980;29;20756;-83
2022/09/17 10:39:55;;;;;;;;;;;;;;;21.30;26.33;98566.81;4865711;29;20040;-83
2022/09/17 10:42:22;;;;;;;4.47;1.17;;;;;;;20.99;26.44;98572.53;4883457;29;19949;-86
2022/09/17 10:45:01;;;;;;;3.28;1.20;;;;;;;20.49;27.05;98501.13;4870985;29;20041;-90
2022/09/17 10:47:41;;;;;;;4.03;1.10;;;;;;;20.07;26.67;98484.69;4865269;29;20041;-86
2022/09/17 10:55:26;;;;;;;2.83;1.20;;;;;;;20.10;27.61;98559.25;4821537;29;20538;-88
2022/09/17 10:59:26;;;;;;;2.97;1.20;;;;;;;19.54;27.90;98496.94;4864980;29;20047;-90
2022/09/17 11:03:10;;;;;;;2.58;1.00;;;;;;;19.81;28.89;98569.09;4866478;29;20086;-89
2022/09/17 11:10:34;;;;;;;4.22;1.30;;;;;;;19.15;29.70;98498.63;4784234;29;20057;-86
2022/09/17 11:13:14;;;;;;;4.28;1.30;;;;;;;19.64;29.73;98584.25;4869830;29;20025;-90
2022/09/17 11:16:23;;;;;;;4.40;1.55;;;;;;;19.47;30.20;98584.50;4861680;29;20033;-84
2022/09/17 11:19:35;;;;;;;6.05;1.75;;;;;;;19.16;30.53;98537.25;4867127;29;20140;-86
2022/09/17 11:26:10;;;;;;;3.75;1.25;;;;;;;18.75;31.31;98519.63;4874066;29;20056;-83
2022/09/17 11:28:51;;;;;;;4.30;1.40;;;;;;;19.03;31.52;98578.53;4855723;29;20047;-83
2022/09/17 11:31:43;;;;;;;5.93;1.65;;;;;;;18.78;31.98;98591.41;4873529;29;20052;-84
2022/09/17 11:34:24;;;;;;;5.38;1.60;;;;;;;18.86;31.86;98598.00;4873585;29;20044;-83
2022/09/17 11:37:24;;;;;;;4.93;1.40;;;;;;;18.98;32.06;98584.06;4876696;29;20069;-86
2022/09/17 11:40:18;;;;;;;3.67;1.38;;;;;;;18.84;31.79;98555.94;4879043;29;20060;-84
2022/09/17 11:43:06;;;;;;;5.05;1.25;;;;;;;18.94;31.61;98579.91;4881324;29;20516;-85
2022/09/17 11:45:34;;;;;;;4.05;1.02;;;;;;;18.54;31.53;98556.06;4883175;29;20047;-85
2022/09/17 11:48:13;;;;;;;3.88;1.15;;;;;;;18.58;31.48;98552.28;4858307;29;20448;-85
2022/09/17 11:50:52;;;;;;;3.35;0.90;;;;;;;18.69;31.21;98575.31;4873038;29;20135;-85
2022/09/17 11:53:52;;;;;;;4.70;1.10;;;;;;;18.70;31.06;98614.75;4870861;29;20057;-87
2022/09/17 12:03:26;;;;;;;4.68;1.08;;;;;;;18.21;31.86;98550.94;4872170;29;20094;-86
2022/09/17 12:06:10;;;;;;;5.38;1.55;;;;;;;18.05;32.00;98545.75;4880484;29;20504;-83
2022/09/17 12:09:07;;;;;;;5.65;1.17;;;;;;;18.38;32.31;98614.06;4860399;29;20417;-86
2022/09/17 12:11:51;;;;;;;5.95;1.40;;;;;;;18.36;32.68;98606.25;4864773;29;20070;-85
2022/09/17 12:14:40;;;;;;;3.30;1.58;;;;;;;18.40;32.72;98604.31;4878647;29;20045;-86
2022/09/17 12:17:19;;;;;;;4.97;1.40;;;;;;;18.26;32.90;98563.00;4878884;29;20076;-85
2022/09/17 12:20:04;;;;;;;7.13;1.60;;;;;;;18.36;33.06;98575.50;4872452;29;20600;-86
2022/09/17 12:22:38;;;;;;;3.70;1.88;;;;;;;18.48;33.16;98578.31;4861035;29;20052;-84
2022/09/17 12:25:05;;;;;;;2.53;1.35;;;;;;;18.33;33.05;98544.09;4841787;29;20489;-82
2022/09/17 12:28:22;;;;;;;4.60;1.45;;;;;;;18.64;32.89;98587.00;4886381;29;20047;-82
2022/09/17 12:31:04;;;;;;;5.38;1.40;;;;;;;18.45;33.09;98584.63;4882464;29;20064;-84
2022/09/17 12:33:49;;;;;;;5.25;1.40;;;;;;;18.38;33.33;98587.75;4883374;29;20124;-84
2022/09/17 12:36:25;;;;;;;3.63;1.20;;;;;;;17.82;33.49;98523.41;4864629;29;20063;-83
2022/09/17 12:39:51;;;;;;;2.50;1.33;;;;;;;18.17;33.83;98606.53;4880720;29;20072;-86
2022/09/17 12:43:08;;;;;;;;;;;;;;;;;;;;;
2022/09/17 12:46:53;;;;;;;1.50;1.08;;;;;;;17.75;34.14;98549.25;4878126;29;20048;-89
2022/09/17 12:49:47;;;;;;;4.68;1.42;;;;;;;18.26;34.04;98621.75;4860206;29;20056;-89
2022/09/17 12:53:01;;;;;;;4.35;1.70;;;;;;;18.15;34.43;98634.72;4895065;29;20062;-88
2022/09/17 12:56:24;;;;;;;5.55;1.30;;;;;;;18.02;34.71;98637.22;4894398;29;20052;-86
2022/09/17 12:59:14;;;;;;;3.45;1.30;;;;;;;18.01;34.65;98638.97;4899271;29;20048;-88
2022/09/17 13:05:13;;;;;;;4.38;1.30;;;;;;;17.91;34.74;98629.91;4872696;29;20420;-91
2022/09/17 13:08:11;;;;;;;3.85;1.30;;;;;;;17.49;34.98;98589.34;4853677;29;20037;-85
2022/09/17 13:11:31;;;;;;;5.85;1.60;;;;;;;17.81;35.26;98642.75;4867819;29;20061;-84
2022/09/17 13:15:03;;;;;;;4.40;1.98;;;;;;;17.80;35.39;98624.41;4900993;29;20121;-88
2022/09/17 13:18:15;;;;;;;6.55;1.70;;;;;;;17.63;35.58;98597.28;4896797;29;20049;-87
2022/09/17 13:21:21;;;;;;;4.20;1.50;;;;;;;17.68;35.43;98626.81;4881107;29;20044;-83
2022/09/17 13:24:01;;;;;;;4.38;1.60;;;;;;;17.31;35.88;98592.91;4861788;29;20048;-83
2022/09/17 13:26:39;;;;;;;6.40;1.70;;;;;;;17.15;36.18;98587.66;4874056;29;20174;-81
2022/09/17 13:29:48;;;;;;;42.75;30.77;;;;;;;17.28;36.66;98626.44;4885083;29;20061;-83
2022/09/17 13:32:33;;;;;;;3.40;1.45;;;;;;;17.07;37.02;98616.16;4899901;29;20057;-82
2022/09/17 13:35:19;;;;;;;4.20;1.50;;;;;;;16.89;37.34;98611.84;4884044;29;20069;-85
2022/09/17 13:38:31;;;;;;;;;;;;;;;;;;;;;
2022/09/17 13:41:20;;;;;;;4.90;1.90;;;;;;;16.70;37.71;98594.44;4889428;29;20048;-83
2022/09/17 13:43:47;;;;;;;7.72;2.40;;;;;;;16.94;37.72;98615.94;4889033;29;20048;-82
2022/09/17 13:46:21;;;;;;;5.70;1.95;;;;;;;16.90;38.04;98588.13;4886593;29;20079;-82
2022/09/17 13:48:56;;;;;;;7.95;2.42;;;;;;;17.28;38.07;98640.41;4888832;29;20069;-82
2022/09/17 13:51:47;;;;;;;4.13;1.73;;;;;;;17.28;37.95;98629.88;4889292;29;20033;-82
2022/09/17 13:54:21;;;;;;;6.33;1.83;;;;;;;17.12;38.09;98611.47;4873525;29;20055;-83
2022/09/17 13:57:06;;;;;;;8.15;2.03;;;;;;;17.24;38.34;98627.53;4879517;29;20208;-84
2022/09/17 13:59:37;;;;;;;4.90;1.80;;;;;;;16.77;38.31;98547.72;4895624;29;20089;-83